Time;durP1;ratioP1;P1;durP2;ratioP2;P2;SDS_P1;SDS_P2;PMS_P1;PMS_P2;Temp;Humidity;BMP_temperature;BMP_pressure;BME280_temperature;BME280_humidity;BME280_pressure;Samples;Min_cycle;Max_cycle;Signal;HPM_P1;HPM_P2
2022/08/28 00:01:00;;;;;;;7.38;3.00;;;;;;;;;;5152705;27;20051;-74
2022/08/28 00:03:27;;;;;;;8.80;3.33;;;;;;;;;;5130517;27;20157;-74
2022/08/28 00:05:56;;;;;;;11.35;3.20;;;;;;;;;;5151471;27;20047;-74
2022/08/28 00:08:24;;;;;;;12.05;3.50;;;;;;;;;;5153748;27;20131;-74
2022/08/28 00:10:51;;;;;;;10.23;3.05;;;;;;;;;;5151129;27;20048;-75
2022/08/28 00:13:21;;;;;;;13.23;3.42;;;;;;;;;;5147599;27;20044;-74
2022/08/28 00:15:50;;;;;;;13.88;3.75;;;;;;;;;;5156150;27;20069;-74
2022/08/28 00:18:18;;;;;;;9.63;3.08;;;;;;;;;;5151989;27;20055;-73
2022/08/28 00:20:46;;;;;;;8.73;3.13;;;;;;;;;;5140368;27;20032;-74
2022/08/28 00:23:13;;;;;;;14.02;3.17;;;;;;;;;;5152410;27;20054;-74
2022/08/28 00:25:41;;;;;;;8.68;2.95;;;;;;;;;;5152451;27;20054;-73
2022/08/28 00:28:09;;;;;;;11.82;3.53;;;;;;;;;;5152917;27;20050;-74
2022/08/28 00:30:50;;;;;;;12.85;3.22;;;;;;;;;;5150179;27;20050;-75
2022/08/28 00:33:21;;;;;;;9.75;3.20;;;;;;;;;;5151166;27;20055;-74
2022/08/28 00:35:48;;;;;;;12.48;3.63;;;;;;;;;;5149671;27;20682;-75
2022/08/28 00:38:18;;;;;;;9.98;2.75;;;;;;;;;;5148060;27;20043;-74
2022/08/28 00:40:48;;;;;;;11.98;3.40;;;;;;;;;;5135248;27;20043;-74
2022/08/28 00:43:33;;;;;;;8.93;3.25;;;;;;;;;;5146336;27;20059;-75
2022/08/28 00:46:01;;;;;;;10.65;3.20;;;;;;;;;;5149062;27;20061;-74
2022/08/28 00:48:29;;;;;;;9.90;3.22;;;;;;;;;;5150377;27;20036;-74
2022/08/28 00:53:43;;;;;;;7.60;2.80;;;;;;;;;;5151468;27;20043;-76
2022/08/28 00:56:11;;;;;;;9.23;3.05;;;;;;;;;;5150392;27;20534;-74
2022/08/28 00:58:41;;;;;;;7.43;3.30;;;;;;;;;;5137639;27;20044;-75
2022/08/28 01:01:08;;;;;;;11.95;3.08;;;;;;;;;;5157280;27;20043;-75
2022/08/28 01:03:36;;;;;;;10.30;3.17;;;;;;;;;;5154728;27;20106;-74
2022/08/28 01:06:04;;;;;;;12.93;3.20;;;;;;;;;;5150869;27;20134;-74
2022/08/28 01:08:32;;;;;;;6.60;2.80;;;;;;;;;;5150554;27;20066;-75
2022/08/28 01:11:03;;;;;;;12.60;3.45;;;;;;;;;;5152735;27;20051;-76
2022/08/28 01:13:40;;;;;;;9.02;3.10;;;;;;;;;;5152341;27;20050;-76
2022/08/28 01:16:08;;;;;;;7.78;3.13;;;;;;;;;;5148315;27;20039;-75
2022/08/28 01:18:35;;;;;;;12.35;2.88;;;;;;;;;;5151567;27;20043;-76
2022/08/28 01:21:35;;;;;;;14.45;3.50;;;;;;;;;;5146154;27;20090;-75
2022/08/28 01:24:06;;;;;;;7.30;2.97;;;;;;;;;;5097393;27;20103;-76
2022/08/28 01:26:34;;;;;;;10.88;3.35;;;;;;;;;;5150372;27;20053;-76
2022/08/28 01:29:01;;;;;;;7.55;3.22;;;;;;;;;;5152433;27;20035;-76
2022/08/28 01:31:30;;;;;;;8.00;3.00;;;;;;;;;;5149404;27;20057;-76
2022/08/28 01:33:58;;;;;;;8.77;3.08;;;;;;;;;;5154545;27;20741;-74
2022/08/28 01:36:25;;;;;;;11.10;3.03;;;;;;;;;;5143386;27;20043;-76
2022/08/28 01:38:55;;;;;;;6.22;2.45;;;;;;;;;;5137046;27;20040;-75
2022/08/28 01:41:22;;;;;;;11.40;3.15;;;;;;;;;;5141718;27;20036;-77
2022/08/28 01:43:49;;;;;;;8.88;3.30;;;;;;;;;;5146261;27;20044;-75
2022/08/28 01:46:16;;;;;;;9.73;3.00;;;;;;;;;;5152748;27;20047;-75
2022/08/28 01:48:44;;;;;;;7.85;2.88;;;;;;;;;;5147217;27;20032;-75
2022/08/28 01:51:12;;;;;;;10.38;3.40;;;;;;;;;;5147459;27;20046;-75
2022/08/28 01:53:40;;;;;;;12.35;3.10;;;;;;;;;;5144761;27;20142;-76
2022/08/28 01:56:13;;;;;;;10.70;3.17;;;;;;;;;;5126583;27;20090;-76
2022/08/28 01:58:40;;;;;;;13.82;3.17;;;;;;;;;;5145368;27;20056;-76
2022/08/28 02:01:09;;;;;;;8.70;3.00;;;;;;;;;;5137403;27;20051;-75
2022/08/28 02:03:37;;;;;;;10.25;2.95;;;;;;;;;;5139715;27;20124;-75
2022/08/28 02:06:06;;;;;;;10.73;3.33;;;;;;;;;;5136731;27;20098;-75
2022/08/28 02:08:35;;;;;;;14.48;3.55;;;;;;;;;;5141847;27;20047;-76
2022/08/28 02:11:05;;;;;;;7.70;3.40;;;;;;;;;;5138659;27;20104;-75
2022/08/28 02:13:33;;;;;;;6.72;2.90;;;;;;;;;;5141821;27;20062;-75
2022/08/28 02:16:01;;;;;;;6.07;2.83;;;;;;;;;;5139687;27;20883;-74
2022/08/28 02:18:28;;;;;;;9.55;3.33;;;;;;;;;;5126115;27;20044;-75
2022/08/28 02:20:55;;;;;;;7.65;3.10;;;;;;;;;;5141005;27;20137;-75
2022/08/28 02:23:23;;;;;;;13.82;3.15;;;;;;;;;;5142199;27;20040;-73
2022/08/28 02:25:51;;;;;;;9.82;3.00;;;;;;;;;;5133465;27;20959;-74
2022/08/28 02:28:18;;;;;;;6.68;2.58;;;;;;;;;;5146311;27;20055;-74
2022/08/28 02:30:45;;;;;;;5.68;2.90;;;;;;;;;;5137409;27;20035;-73
2022/08/28 02:33:14;;;;;;;5.60;3.05;;;;;;;;;;5137856;27;20054;-74
2022/08/28 02:35:42;;;;;;;10.95;2.80;;;;;;;;;;5143122;27;20069;-74
2022/08/28 02:38:09;;;;;;;8.38;2.78;;;;;;;;;;5134251;27;20062;-74
2022/08/28 02:40:38;;;;;;;9.82;2.83;;;;;;;;;;5137317;27;20052;-73
2022/08/28 02:43:05;;;;;;;12.15;3.20;;;;;;;;;;5129531;27;20044;-75
2022/08/28 02:45:33;;;;;;;11.93;2.85;;;;;;;;;;5141332;27;20098;-73
2022/08/28 02:48:00;;;;;;;9.02;2.65;;;;;;;;;;5141895;27;20051;-73
2022/08/28 02:50:28;;;;;;;4.90;2.25;;;;;;;;;;5143190;27;20085;-74
2022/08/28 02:52:56;;;;;;;6.43;2.42;;;;;;;;;;5149931;27;20047;-74
2022/08/28 02:55:24;;;;;;;7.57;2.55;;;;;;;;;;5146794;27;20047;-73
2022/08/28 02:57:53;;;;;;;4.65;2.22;;;;;;;;;;5137180;27;20051;-73
2022/08/28 03:00:27;;;;;;;6.32;2.45;;;;;;;;;;5142439;27;20047;-74
2022/08/28 03:02:55;;;;;;;10.07;2.38;;;;;;;;;;5137927;27;20253;-73
2022/08/28 03:05:23;;;;;;;4.50;2.60;;;;;;;;;;5145160;27;20127;-73
2022/08/28 03:07:57;;;;;;;6.90;2.47;;;;;;;;;;5139036;27;20051;-74
2022/08/28 03:10:27;;;;;;;6.18;2.72;;;;;;;;;;5140118;27;20052;-73
2022/08/28 03:12:58;;;;;;;6.68;2.47;;;;;;;;;;5131971;27;20047;-74
2022/08/28 03:15:27;;;;;;;3.95;2.30;;;;;;;;;;5139836;27;20050;-74
2022/08/28 03:17:58;;;;;;;4.38;2.40;;;;;;;;;;5135413;27;20052;-73
2022/08/28 03:20:25;;;;;;;4.72;2.53;;;;;;;;;;5138334;27;20063;-74
2022/08/28 03:25:41;;;;;;;6.85;2.72;;;;;;;;;;5150026;27;20055;-73
2022/08/28 03:28:08;;;;;;;5.65;2.60;;;;;;;;;;5137478;27;20935;-74
2022/08/28 03:30:36;;;;;;;5.00;2.20;;;;;;;;;;5140228;27;20844;-73
2022/08/28 03:33:03;;;;;;;6.90;2.85;;;;;;;;;;5132595;27;20043;-73
2022/08/28 03:35:31;;;;;;;6.47;2.13;;;;;;;;;;5137869;27;20075;-74
2022/08/28 03:37:58;;;;;;;7.60;2.33;;;;;;;;;;5141211;27;20102;-73
2022/08/28 03:40:26;;;;;;;6.82;2.55;;;;;;;;;;5138735;27;20048;-73
2022/08/28 03:42:53;;;;;;;5.45;2.42;;;;;;;;;;5137431;27;20104;-73
2022/08/28 03:45:28;;;;;;;5.95;2.60;;;;;;;;;;5138657;27;20047;-74
2022/08/28 03:47:55;;;;;;;;;;;;;;;;;;5143662;27;20047;-74
2022/08/28 03:50:22;;;;;;;4.35;2.20;;;;;;;;;;5134890;27;45771;-74
2022/08/28 03:52:50;;;;;;;8.50;2.28;;;;;;;;;;5141705;27;20079;-73
2022/08/28 03:55:18;;;;;;;3.92;2.28;;;;;;;;;;5133698;27;20139;-73
2022/08/28 03:57:50;;;;;;;6.13;2.58;;;;;;;;;;5138416;27;20052;-74
2022/08/28 04:00:18;;;;;;;4.82;2.40;;;;;;;;;;5141368;27;20039;-74
2022/08/28 04:02:45;;;;;;;5.10;2.15;;;;;;;;;;5133882;27;20138;-73
2022/08/28 04:05:12;;;;;;;5.97;2.40;;;;;;;;;;5144334;27;20488;-74
2022/08/28 04:07:40;;;;;;;8.98;2.80;;;;;;;;;;5136479;27;20048;-74
2022/08/28 04:10:07;;;;;;;5.40;2.35;;;;;;;;;;5139676;27;20051;-74
2022/08/28 04:12:35;;;;;;;12.60;2.70;;;;;;;;;;5142579;27;20051;-74
2022/08/28 04:15:03;;;;;;;6.63;2.40;;;;;;;;;;5140431;27;20077;-73
2022/08/28 04:17:33;;;;;;;6.05;2.38;;;;;;;;;;5141649;27;20059;-73
2022/08/28 04:20:00;;;;;;;7.72;1.90;;;;;;;;;;5137911;27;20048;-73
2022/08/28 04:22:29;;;;;;;4.95;2.05;;;;;;;;;;5137943;27;20052;-74
2022/08/28 04:24:56;;;;;;;5.55;1.92;;;;;;;;;;5135717;27;20055;-75
2022/08/28 04:27:23;;;;;;;9.70;2.35;;;;;;;;;;5139896;27;20047;-73
2022/08/28 04:29:50;;;;;;;4.07;2.08;;;;;;;;;;5140453;27;20066;-74
2022/08/28 04:32:17;;;;;;;3.53;1.88;;;;;;;;;;5144237;27;20052;-73
2022/08/28 04:34:44;;;;;;;4.45;2.22;;;;;;;;;;5126790;27;20039;-74
2022/08/28 04:37:12;;;;;;;2.28;1.67;;;;;;;;;;5142257;27;20050;-74
2022/08/28 04:39:41;;;;;;;5.75;1.70;;;;;;;;;;5135136;27;20091;-74
2022/08/28 04:42:09;;;;;;;6.47;2.45;;;;;;;;;;5145806;27;20135;-74
2022/08/28 04:44:36;;;;;;;5.50;2.20;;;;;;;;;;5137990;27;20059;-73
2022/08/28 04:47:03;;;;;;;4.03;1.85;;;;;;;;;;5130267;27;20063;-73
2022/08/28 04:49:32;;;;;;;4.03;2.10;;;;;;;;;;5146355;27;20059;-75
2022/08/28 04:51:59;;;;;;;4.20;1.92;;;;;;;;;;5129363;27;20043;-74
2022/08/28 04:54:26;;;;;;;3.25;1.90;;;;;;;;;;5141491;27;20052;-73
2022/08/28 04:56:54;;;;;;;4.88;2.15;;;;;;;;;;5137459;27;20047;-74
2022/08/28 04:59:24;;;;;;;3.40;2.10;;;;;;;;;;5140697;27;20048;-74
2022/08/28 05:01:53;;;;;;;5.20;2.30;;;;;;;;;;5142376;27;20047;-74
2022/08/28 05:04:20;;;;;;;3.05;1.90;;;;;;;;;;5138654;27;20047;-74
2022/08/28 05:06:48;;;;;;;5.80;2.05;;;;;;;;;;5141471;27;20047;-74
2022/08/28 05:09:19;;;;;;;8.10;2.42;;;;;;;;;;5142145;27;20831;-73
2022/08/28 05:11:49;;;;;;;9.35;2.33;;;;;;;;;;5139711;27;20054;-74
2022/08/28 05:14:18;;;;;;;3.67;2.30;;;;;;;;;;5137642;27;20047;-74
2022/08/28 05:16:51;;;;;;;5.50;2.10;;;;;;;;;;5143152;27;20050;-73
2022/08/28 05:19:19;;;;;;;5.95;2.05;;;;;;;;;;5138169;27;20134;-74
2022/08/28 05:21:47;;;;;;;10.07;2.45;;;;;;;;;;5138372;27;20056;-75
2022/08/28 05:24:14;;;;;;;4.68;2.22;;;;;;;;;;5132612;27;20044;-74
2022/08/28 05:26:41;;;;;;;4.25;2.45;;;;;;;;;;5136842;27;20054;-74
2022/08/28 05:29:10;;;;;;;4.85;2.25;;;;;;;;;;5138282;27;20078;-75
2022/08/28 05:31:40;;;;;;;9.48;2.42;;;;;;;;;;5135086;27;20052;-76
2022/08/28 05:34:09;;;;;;;5.28;2.30;;;;;;;;;;5136502;27;20050;-75
2022/08/28 05:36:37;;;;;;;9.85;2.00;;;;;;;;;;5132583;27;20059;-76
2022/08/28 05:39:07;;;;;;;6.65;2.22;;;;;;;;;;5143746;27;20108;-75
2022/08/28 05:41:35;;;;;;;3.58;2.17;;;;;;;;;;5134819;27;20051;-76
2022/08/28 05:44:05;;;;;;;5.30;1.92;;;;;;;;;;5140237;27;20043;-75
2022/08/28 05:46:32;;;;;;;4.07;1.88;;;;;;;;;;5136514;27;20063;-75
2022/08/28 05:48:59;;;;;;;4.15;2.28;;;;;;;;;;5133298;27;20048;-75
2022/08/28 05:51:27;;;;;;;3.53;2.22;;;;;;;;;;5144607;27;20054;-75
2022/08/28 05:53:58;;;;;;;6.15;1.98;;;;;;;;;;5135675;27;20047;-74
2022/08/28 05:56:28;;;;;;;6.45;2.60;;;;;;;;;;5138808;27;20050;-75
2022/08/28 05:58:58;;;;;;;8.23;2.17;;;;;;;;;;5136352;27;20052;-74
2022/08/28 06:01:30;;;;;;;4.53;2.20;;;;;;;;;;5138380;27;20059;-74
2022/08/28 06:03:59;;;;;;;10.15;2.30;;;;;;;;;;5135647;27;20168;-75
2022/08/28 06:06:28;;;;;;;9.90;2.45;;;;;;;;;;5126013;27;20875;-76
2022/08/28 06:08:56;;;;;;;7.15;2.60;;;;;;;;;;5150301;27;20047;-75
2022/08/28 06:11:26;;;;;;;9.60;2.67;;;;;;;;;;5150604;27;20097;-75
2022/08/28 06:13:57;;;;;;;5.28;2.50;;;;;;;;;;5144345;27;20037;-75
2022/08/28 06:16:24;;;;;;;8.90;2.50;;;;;;;;;;5140892;27;20094;-76
2022/08/28 06:18:51;;;;;;;3.97;2.28;;;;;;;;;;5143864;27;20051;-74
2022/08/28 06:21:19;;;;;;;6.25;2.55;;;;;;;;;;5140357;27;20055;-75
2022/08/28 06:23:46;;;;;;;6.88;2.38;;;;;;;;;;5146484;27;20756;-75
2022/08/28 06:26:13;;;;;;;4.07;2.17;;;;;;;;;;5151007;27;20045;-73
2022/08/28 06:28:40;;;;;;;5.78;2.83;;;;;;;;;;5149476;27;20053;-73
2022/08/28 06:31:08;;;;;;;9.82;2.83;;;;;;;;;;5143274;27;20757;-74
2022/08/28 06:33:53;;;;;;;7.22;2.50;;;;;;;;;;5149842;27;20112;-75
2022/08/28 06:36:22;;;;;;;7.63;2.42;;;;;;;;;;5143139;27;20061;-76
2022/08/28 06:38:50;;;;;;;11.77;2.17;;;;;;;;;;5147056;27;20048;-74
2022/08/28 06:41:18;;;;;;;6.72;2.25;;;;;;;;;;5139197;27;20059;-75
2022/08/28 06:43:45;;;;;;;5.50;2.13;;;;;;;;;;5145904;27;20047;-75
2022/08/28 06:46:12;;;;;;;7.28;2.28;;;;;;;;;;5147693;27;20085;-76
2022/08/28 06:48:40;;;;;;;9.43;2.17;;;;;;;;;;5142941;27;20051;-76
2022/08/28 06:51:08;;;;;;;12.15;2.50;;;;;;;;;;5147615;27;20043;-76
2022/08/28 06:53:36;;;;;;;9.60;2.15;;;;;;;;;;5147661;27;20065;-75
2022/08/28 06:56:16;;;;;;;12.90;2.03;;;;;;;;;;5151745;27;20043;-75
2022/08/28 06:58:57;;;;;;;9.93;2.13;;;;;;;;;;5154507;27;20051;-75
2022/08/28 07:01:27;;;;;;;5.10;1.90;;;;;;;;;;5145966;27;20060;-76
2022/08/28 07:04:00;;;;;;;14.35;1.90;;;;;;;;;;5144816;27;20079;-76
2022/08/28 07:06:30;;;;;;;10.15;1.92;;;;;;;;;;5143976;27;20052;-76
2022/08/28 07:08:57;;;;;;;11.65;1.80;;;;;;;;;;5127745;27;20047;-75
2022/08/28 07:11:26;;;;;;;8.93;1.95;;;;;;;;;;5148684;27;20051;-75
2022/08/28 07:13:54;;;;;;;10.10;2.05;;;;;;;;;;5144493;27;21086;-76
2022/08/28 07:16:24;;;;;;;7.93;1.80;;;;;;;;;;5140495;27;20130;-75
2022/08/28 07:18:51;;;;;;;5.60;1.77;;;;;;;;;;5144015;27;20146;-77
2022/08/28 07:21:19;;;;;;;7.25;1.63;;;;;;;;;;5142014;27;20040;-76
2022/08/28 07:23:48;;;;;;;8.65;1.67;;;;;;;;;;5145013;27;20052;-75
2022/08/28 07:26:18;;;;;;;5.25;1.40;;;;;;;;;;5138310;27;20079;-77
2022/08/28 07:28:46;;;;;;;7.45;1.80;;;;;;;;;;5141111;27;20043;-76
2022/08/28 07:31:15;;;;;;;8.02;1.77;;;;;;;;;;5141259;27;20144;-75
2022/08/28 07:33:43;;;;;;;7.60;1.70;;;;;;;;;;5140917;27;20055;-75
2022/08/28 07:36:12;;;;;;;10.50;2.00;;;;;;;;;;5144840;27;20066;-75
2022/08/28 07:38:59;;;;;;;5.85;1.63;;;;;;;;;;5141202;27;20826;-77
2022/08/28 07:41:27;;;;;;;3.70;1.20;;;;;;;;;;5121136;27;20884;-77
2022/08/28 07:46:41;;;;;;;4.95;1.65;;;;;;;;;;5138741;27;20903;-76
2022/08/28 07:49:08;;;;;;;4.03;1.40;;;;;;;;;;5139823;27;20106;-76
2022/08/28 07:51:36;;;;;;;7.97;1.70;;;;;;;;;;5147688;27;20073;-76
2022/08/28 07:54:03;;;;;;;8.38;1.70;;;;;;;;;;5139508;27;20058;-75
2022/08/28 07:56:31;;;;;;;3.72;1.48;;;;;;;;;;5147937;27;20063;-76
2022/08/28 07:58:59;;;;;;;8.75;1.80;;;;;;;;;;5145087;27;20035;-75
2022/08/28 08:01:28;;;;;;;5.60;1.70;;;;;;;;;;5140843;27;20048;-75
2022/08/28 08:03:57;;;;;;;4.65;1.60;;;;;;;;;;5148140;27;20058;-76
2022/08/28 08:06:30;;;;;;;7.50;1.70;;;;;;;;;;5141507;27;20061;-75
2022/08/28 08:09:00;;;;;;;4.90;1.70;;;;;;;;;;5144141;27;20135;-75
2022/08/28 08:11:28;;;;;;;8.20;1.73;;;;;;;;;;5143642;27;20131;-75
2022/08/28 08:14:02;;;;;;;6.72;1.65;;;;;;;;;;5137265;27;20044;-76
2022/08/28 08:16:37;;;;;;;2.95;1.40;;;;;;;;;;5127042;27;20053;-75
2022/08/28 08:19:12;;;;;;;5.05;1.10;;;;;;;;;;5140539;27;20521;-75
2022/08/28 08:21:41;;;;;;;6.35;1.38;;;;;;;;;;5141364;27;20047;-76
2022/08/28 08:24:14;;;;;;;6.70;1.50;;;;;;;;;;5146568;27;20138;-75
2022/08/28 08:26:47;;;;;;;4.00;1.38;;;;;;;;;;5145595;27;20050;-74
2022/08/28 08:29:27;;;;;;;10.13;1.75;;;;;;;;;;5140692;27;20059;-75
2022/08/28 08:31:55;;;;;;;6.32;1.38;;;;;;;;;;5139777;27;20065;-75
2022/08/28 08:34:26;;;;;;;6.82;1.90;;;;;;;;;;5131873;27;20073;-75
2022/08/28 08:36:57;;;;;;;4.93;1.77;;;;;;;;;;5144244;27;20039;-75
2022/08/28 08:39:24;;;;;;;4.70;1.65;;;;;;;;;;5130890;27;20819;-75
2022/08/28 08:41:53;;;;;;;8.25;1.90;;;;;;;;;;5144307;27;20043;-75
2022/08/28 08:44:29;;;;;;;8.43;1.42;;;;;;;;;;5146878;27;20055;-75
2022/08/28 08:47:18;;;;;;;4.55;1.70;;;;;;;;;;5129620;27;20055;-75
2022/08/28 08:49:49;;;;;;;5.63;1.40;;;;;;;;;;5137970;27;22678;-74
2022/08/28 08:52:25;;;;;;;3.75;1.55;;;;;;;;;;5139016;27;20797;-76
2022/08/28 08:55:15;;;;;;;6.60;1.50;;;;;;;;;;5141364;27;20055;-74
2022/08/28 08:57:43;;;;;;;5.22;1.23;;;;;;;;;;5144137;27;20042;-74
2022/08/28 09:00:15;;;;;;;4.63;1.35;;;;;;;;;;5136284;27;20075;-77
2022/08/28 09:02:46;;;;;;;3.42;1.40;;;;;;;;;;5144132;27;20150;-76
2022/08/28 09:05:19;;;;;;;3.70;1.17;;;;;;;;;;5144547;27;20054;-76
2022/08/28 09:07:55;;;;;;;4.32;1.00;;;;;;;;;;5142573;27;20052;-75
2022/08/28 09:10:23;;;;;;;8.65;1.65;;;;;;;;;;5122272;27;20032;-75
2022/08/28 09:13:05;;;;;;;4.25;1.33;;;;;;;;;;5136203;27;20054;-76
2022/08/28 09:15:34;;;;;;;4.63;1.33;;;;;;;;;;5139487;27;21750;-75
2022/08/28 09:18:17;;;;;;;9.15;1.60;;;;;;;;;;5140872;27;20047;-76
2022/08/28 09:20:44;;;;;;;;;;;;;;;;;;5138802;27;20083;-74
2022/08/28 09:23:12;;;;;;;7.78;1.25;;;;;;;;;;5140232;27;44363;-76
2022/08/28 09:25:46;;;;;;;4.07;1.42;;;;;;;;;;5136090;27;20051;-74
2022/08/28 09:28:31;;;;;;;9.07;1.50;;;;;;;;;;5139442;27;20121;-75
2022/08/28 09:31:01;;;;;;;8.93;1.50;;;;;;;;;;5136510;27;20047;-75
2022/08/28 09:33:39;;;;;;;6.15;1.77;;;;;;;;;;5142205;27;20071;-75
2022/08/28 09:36:30;;;;;;;4.00;1.58;;;;;;;;;;5141959;27;20776;-75
2022/08/28 09:39:16;;;;;;;4.68;1.30;;;;;;;;;;5135581;27;20075;-75
2022/08/28 09:44:53;;;;;;;5.68;1.48;;;;;;;;;;5150099;27;20051;-76
2022/08/28 09:47:40;;;;;;;6.30;1.60;;;;;;;;;;5133748;27;20772;-74
2022/08/28 09:50:21;;;;;;;4.25;1.38;;;;;;;;;;5141099;27;20907;-74
2022/08/28 09:52:48;;;;;;;2.72;1.20;;;;;;;;;;5135527;27;20788;-77
2022/08/28 09:55:42;;;;;;;2.72;1.23;;;;;;;;;;5139656;27;20046;-75
2022/08/28 09:58:09;;;;;;;7.93;1.30;;;;;;;;;;5103643;27;20788;-76
2022/08/28 10:00:41;;;;;;;4.70;1.38;;;;;;;;;;5129876;27;20077;-76
2022/08/28 10:03:15;;;;;;;6.05;1.75;;;;;;;;;;5135965;27;20052;-75
2022/08/28 10:06:01;;;;;;;6.78;1.48;;;;;;;;;;5141891;27;20051;-74
2022/08/28 10:08:32;;;;;;;3.10;1.40;;;;;;;;;;5139217;27;20050;-74
2022/08/28 10:11:03;;;;;;;6.80;1.40;;;;;;;;;;5141160;27;20047;-75
2022/08/28 10:13:33;;;;;;;7.35;1.52;;;;;;;;;;5154775;27;20048;-76
2022/08/28 10:16:00;;;;;;;3.60;1.27;;;;;;;;;;5144101;27;20087;-74
2022/08/28 10:18:39;;;;;;;7.68;1.52;;;;;;;;;;5154602;27;20043;-75
2022/08/28 10:21:17;;;;;;;9.82;1.60;;;;;;;;;;5142129;27;20127;-74
2022/08/28 10:23:45;;;;;;;4.63;1.15;;;;;;;;;;5120759;27;20035;-74
2022/08/28 10:26:18;;;;;;;6.93;1.35;;;;;;;;;;5138429;27;20055;-76
2022/08/28 10:28:51;;;;;;;2.38;1.40;;;;;;;;;;5138501;27;20135;-75
2022/08/28 10:31:28;;;;;;;7.53;1.88;;;;;;;;;;5144142;27;20089;-74
2022/08/28 10:34:10;;;;;;;5.97;1.60;;;;;;;;;;5143305;27;20058;-74
2022/08/28 10:36:37;;;;;;;2.83;1.30;;;;;;;;;;5137077;27;20134;-74
2022/08/28 10:39:13;;;;;;;2.55;1.30;;;;;;;;;;5139893;27;20087;-74
2022/08/28 10:42:00;;;;;;;4.10;1.40;;;;;;;;;;5143953;27;20048;-76
2022/08/28 10:44:57;;;;;;;6.97;1.55;;;;;;;;;;5129422;27;20052;-74
2022/08/28 10:47:27;;;;;;;6.47;1.35;;;;;;;;;;5148648;27;20684;-75
2022/08/28 10:50:00;;;;;;;2.58;1.35;;;;;;;;;;5140246;27;20090;-75
2022/08/28 10:52:27;;;;;;;;;;;;;;;;;;5138771;27;20051;-74
2022/08/28 10:55:08;;;;;;;6.22;1.10;;;;;;;;;;5138858;27;44398;-74
2022/08/28 10:57:43;;;;;;;7.00;1.30;;;;;;;;;;5140591;27;20071;-74
2022/08/28 11:00:13;;;;;;;3.55;1.20;;;;;;;;;;5152254;27;20047;-74
2022/08/28 11:02:43;;;;;;;4.45;1.20;;;;;;;;;;5131309;27;20089;-75
2022/08/28 11:05:11;;;;;;;9.43;1.30;;;;;;;;;;5121297;27;20108;-73
2022/08/28 11:07:45;;;;;;;4.45;1.40;;;;;;;;;;5151494;27;20112;-76
2022/08/28 11:10:31;;;;;;;2.92;1.30;;;;;;;;;;5144184;27;20077;-75
2022/08/28 11:12:59;;;;;;;6.15;1.27;;;;;;;;;;5154282;27;20099;-74
2022/08/28 11:15:26;;;;;;;5.97;1.45;;;;;;;;;;5150403;27;20489;-74
2022/08/28 11:18:20;;;;;;;5.07;1.50;;;;;;;;;;5142628;27;20054;-76
2022/08/28 11:21:00;;;;;;;3.80;1.35;;;;;;;;;;5140353;27;20084;-74
2022/08/28 11:23:37;;;;;;;3.05;1.20;;;;;;;;;;5140831;27;20133;-74
2022/08/28 11:26:09;;;;;;;4.45;1.40;;;;;;;;;;5130811;27;20054;-74
2022/08/28 11:28:39;;;;;;;2.90;1.27;;;;;;;;;;5142122;27;20047;-75
2022/08/28 11:31:06;;;;;;;3.15;1.20;;;;;;;;;;5131185;27;20560;-74
2022/08/28 11:33:34;;;;;;;5.07;1.30;;;;;;;;;;5128105;27;20047;-75
2022/08/28 11:36:01;;;;;;;2.70;1.13;;;;;;;;;;5151880;27;20047;-73
2022/08/28 11:38:41;;;;;;;5.30;1.30;;;;;;;;;;5151440;27;20175;-75
2022/08/28 11:41:13;;;;;;;6.93;1.30;;;;;;;;;;5145262;27;20101;-75
2022/08/28 11:43:45;;;;;;;4.27;1.20;;;;;;;;;;5147783;27;20052;-75
2022/08/28 11:46:31;;;;;;;4.20;1.25;;;;;;;;;;5145649;27;20905;-76
2022/08/28 11:49:00;;;;;;;4.60;1.30;;;;;;;;;;5143010;27;20076;-73
2022/08/28 11:51:36;;;;;;;2.28;1.20;;;;;;;;;;5138074;27;20047;-74
2022/08/28 11:54:03;;;;;;;9.60;1.30;;;;;;;;;;5135184;27;20028;-74
2022/08/28 11:56:42;;;;;;;3.58;1.50;;;;;;;;;;5139570;27;20857;-74
2022/08/28 11:59:10;;;;;;;2.95;1.23;;;;;;;;;;5138844;27;20139;-74
2022/08/28 12:01:38;;;;;;;3.15;1.17;;;;;;;;;;5142143;27;20047;-74
2022/08/28 12:04:07;;;;;;;6.00;1.58;;;;;;;;;;5142654;27;20096;-75
2022/08/28 12:06:45;;;;;;;2.88;1.27;;;;;;;;;;5135178;27;20048;-74
2022/08/28 12:09:32;;;;;;;4.30;1.25;;;;;;;;;;5136097;27;20039;-73
2022/08/28 12:12:01;;;;;;;2.58;1.23;;;;;;;;;;5137276;27;20924;-74
2022/08/28 12:14:29;;;;;;;4.30;1.42;;;;;;;;;;5145941;27;20138;-73
2022/08/28 12:16:56;;;;;;;4.53;1.30;;;;;;;;;;5142109;27;20073;-75
2022/08/28 12:19:33;;;;;;;4.22;1.15;;;;;;;;;;5137561;27;20059;-76
2022/08/28 12:22:11;;;;;;;5.10;1.30;;;;;;;;;;5143753;27;20593;-74
2022/08/28 12:24:54;;;;;;;3.42;1.20;;;;;;;;;;5138031;27;20071;-74
2022/08/28 12:27:23;;;;;;;3.00;1.30;;;;;;;;;;5140722;27;20052;-75
2022/08/28 12:29:53;;;;;;;5.30;1.30;;;;;;;;;;5133152;27;20043;-73
2022/08/28 12:32:40;;;;;;;8.32;1.55;;;;;;;;;;5143138;27;20051;-74
2022/08/28 12:35:16;;;;;;;4.72;1.10;;;;;;;;;;5140510;27;20058;-75
2022/08/28 12:37:53;;;;;;;3.40;1.30;;;;;;;;;;5138132;27;20060;-75
2022/08/28 12:40:32;;;;;;;3.85;1.20;;;;;;;;;;5142555;27;20040;-74
2022/08/28 12:43:03;;;;;;;7.25;1.27;;;;;;;;;;5142532;27;20043;-75
2022/08/28 12:45:38;;;;;;;2.63;1.30;;;;;;;;;;5138709;27;20139;-73
2022/08/28 12:48:32;;;;;;;3.70;1.13;;;;;;;;;;5127448;27;20096;-75
2022/08/28 12:51:04;;;;;;;3.30;1.13;;;;;;;;;;5138808;27;20090;-74
2022/08/28 12:53:37;;;;;;;3.10;1.20;;;;;;;;;;5133016;27;20051;-75
2022/08/28 12:56:05;;;;;;;2.92;1.40;;;;;;;;;;5147203;27;20047;-73
2022/08/28 12:58:33;;;;;;;3.40;1.40;;;;;;;;;;5146501;27;20051;-75
2022/08/28 13:01:03;;;;;;;4.28;1.38;;;;;;;;;;5145927;27;20039;-75
2022/08/28 13:03:32;;;;;;;2.72;1.23;;;;;;;;;;5148314;27;20103;-74
2022/08/28 13:06:04;;;;;;;2.60;1.08;;;;;;;;;;5143274;27;20111;-74
2022/08/28 13:08:33;;;;;;;4.15;1.20;;;;;;;;;;5146519;27;20055;-75
2022/08/28 13:11:01;;;;;;;3.33;1.23;;;;;;;;;;5146038;27;20127;-75
2022/08/28 13:13:40;;;;;;;2.55;1.13;;;;;;;;;;5147759;27;20811;-74
2022/08/28 13:16:11;;;;;;;4.88;1.10;;;;;;;;;;5149211;27;20027;-74
2022/08/28 13:18:38;;;;;;;3.08;1.15;;;;;;;;;;5146860;27;20059;-74
2022/08/28 13:21:18;;;;;;;3.85;1.13;;;;;;;;;;5143122;27;20044;-75
2022/08/28 13:24:01;;;;;;;2.58;1.38;;;;;;;;;;5144359;27;20067;-74
2022/08/28 13:26:36;;;;;;;1.77;1.05;;;;;;;;;;5139407;27;20035;-74
2022/08/28 13:29:15;;;;;;;2.45;0.90;;;;;;;;;;5144921;27;20039;-75
2022/08/28 13:31:43;;;;;;;3.05;1.30;;;;;;;;;;5134930;27;20055;-76
2022/08/28 13:34:21;;;;;;;1.42;0.77;;;;;;;;;;5142636;27;20116;-74
2022/08/28 13:36:51;;;;;;;3.45;1.33;;;;;;;;;;5148319;27;20882;-75
2022/08/28 13:39:21;;;;;;;4.75;1.33;;;;;;;;;;5152102;27;20039;-74
2022/08/28 13:41:50;;;;;;;2.78;1.10;;;;;;;;;;5144368;27;20073;-74
2022/08/28 13:44:21;;;;;;;2.67;1.42;;;;;;;;;;5147588;27;20043;-76
2022/08/28 13:46:48;;;;;;;2.13;1.15;;;;;;;;;;5135894;27;20063;-75
2022/08/28 13:49:15;;;;;;;3.95;1.50;;;;;;;;;;5148177;27;20035;-76
2022/08/28 13:51:43;;;;;;;2.97;1.30;;;;;;;;;;5148538;27;20907;-75
2022/08/28 13:54:10;;;;;;;3.05;1.40;;;;;;;;;;5146749;27;20074;-75
2022/08/28 13:56:42;;;;;;;4.57;1.30;;;;;;;;;;5141331;27;20228;-76
2022/08/28 13:59:09;;;;;;;15.48;1.50;;;;;;;;;;5118139;27;20044;-74
2022/08/28 14:04:24;;;;;;;7.20;1.50;;;;;;;;;;5141911;27;20051;-76
2022/08/28 14:06:52;;;;;;;3.15;1.10;;;;;;;;;;5140480;27;20878;-74
2022/08/28 14:09:20;;;;;;;3.78;1.35;;;;;;;;;;5141877;27;20050;-76
2022/08/28 14:11:49;;;;;;;2.45;1.30;;;;;;;;;;5138664;27;20047;-75
2022/08/28 14:14:16;;;;;;;4.68;1.45;;;;;;;;;;5139074;27;20054;-75
2022/08/28 14:16:44;;;;;;;8.90;1.45;;;;;;;;;;5134550;27;20043;-75
2022/08/28 14:19:12;;;;;;;4.85;1.42;;;;;;;;;;5136151;27;20051;-74
2022/08/28 14:21:42;;;;;;;3.83;1.38;;;;;;;;;;5140588;27;20150;-75
2022/08/28 14:24:09;;;;;;;6.30;1.50;;;;;;;;;;5121207;27;20839;-74
2022/08/28 14:26:37;;;;;;;3.95;1.73;;;;;;;;;;5136234;27;20051;-75
2022/08/28 14:29:07;;;;;;;3.25;1.35;;;;;;;;;;5125000;27;20044;-76
2022/08/28 14:31:35;;;;;;;2.92;1.20;;;;;;;;;;5141038;27;20680;-74
2022/08/28 14:34:04;;;;;;;2.70;1.10;;;;;;;;;;5137383;27;20047;-75
2022/08/28 14:36:32;;;;;;;2.80;1.40;;;;;;;;;;5138933;27;20082;-74
2022/08/28 14:39:00;;;;;;;3.80;1.63;;;;;;;;;;5141821;27;20040;-75
2022/08/28 14:41:33;;;;;;;4.77;1.50;;;;;;;;;;5140715;27;20051;-75
2022/08/28 14:44:00;;;;;;;3.33;1.40;;;;;;;;;;5143361;27;20070;-75
2022/08/28 14:46:29;;;;;;;4.85;1.25;;;;;;;;;;5140605;27;20094;-75
2022/08/28 14:48:58;;;;;;;2.83;1.45;;;;;;;;;;5142293;27;20027;-75
2022/08/28 14:51:29;;;;;;;4.80;1.20;;;;;;;;;;5139773;27;20055;-75
2022/08/28 14:53:58;;;;;;;3.08;1.15;;;;;;;;;;5137802;27;20047;-75
2022/08/28 14:56:26;;;;;;;6.82;1.55;;;;;;;;;;5150583;27;20098;-75
2022/08/28 14:58:57;;;;;;;3.78;1.55;;;;;;;;;;5148577;27;20081;-75
2022/08/28 15:01:35;;;;;;;2.88;1.10;;;;;;;;;;5147485;27;20044;-75
2022/08/28 15:04:08;;;;;;;3.15;1.42;;;;;;;;;;5157645;27;20099;-74
2022/08/28 15:06:36;;;;;;;2.65;1.27;;;;;;;;;;5149989;27;20051;-73
2022/08/28 15:09:06;;;;;;;2.90;1.25;;;;;;;;;;5156615;27;20104;-75
2022/08/28 15:11:34;;;;;;;3.65;1.50;;;;;;;;;;5142677;27;20071;-74
2022/08/28 15:14:02;;;;;;;4.85;1.60;;;;;;;;;;5150986;27;20109;-74
2022/08/28 15:16:34;;;;;;;3.83;1.40;;;;;;;;;;5156636;27;20086;-74
2022/08/28 15:19:03;;;;;;;6.20;1.80;;;;;;;;;;5159932;27;20043;-75